M I D A S
Marine Information and Data Acquisition System
Tripno 1724 of the Zeeleeuw from 2009-03-16 08:21:21 to 2009-03-16 13:36:56
Back to CruiseResearch ActivitiesStationsMapUnderway DataData graphs

EquipmentUnitsComment
TimeDGPSUTC
LatitudeDGPSDM.mWGS84
LongitudeDGPSDM.mWGS84
HeadingGyrodeg 
SOGDGPSknotsSpeed over ground
COGDGPSdegCourse over ground
DepthEcho soundermeters200 kHz
Missing or incorrect values are displayed as -999
Navigation data collected by the RV Zeeleeuw from 2009-03-16 08:24:21 to 2009-03-16 13:46:07
Time Latitude Longitude Heading SOG COG Depth
2009-03-16 08:25:30 51°13.678 2°55.912 116.9 2.6 300 -999
2009-03-16 08:26:30 51°13.693 2°55.852 101.2 2.4 286 -999
2009-03-16 08:27:29 51°13.699 2°55.788 83.1 2.4 272 5.8
2009-03-16 08:28:27 51°13.706 2°55.77 40.5 1.4 20 6.5
2009-03-16 08:29:26 51°13.709 2°55.766 4.3 0.7 204 2.3
2009-03-16 08:30:27 51°13.728 2°55.744 324.9 3.1 323 6.5
2009-03-16 08:31:27 51°13.803 2°55.662 331.4 7.5 330 -999
2009-03-16 08:32:27 51°13.934 2°55.558 336.9 9.4 335 5.9
2009-03-16 08:33:27 51°14.078 2°55.45 336.6 9.7 334 5
2009-03-16 08:34:27 51°14.22 2°55.32 327.1 10 324 8.1
2009-03-16 08:35:27 51°14.34 2°55.124 311.9 10.7 310 8.4
2009-03-16 08:36:27 51°14.447 2°54.893 305.6 11 300 11.6
2009-03-16 08:37:27 51°14.53 2°54.623 301.3 11.4 295 10.7
2009-03-16 08:38:27 51°14.608 2°54.338 299.7 11.8 294 6
2009-03-16 08:39:27 51°14.717 2°54.105 337.9 10.1 336 5.7
2009-03-16 08:40:27 51°14.833 2°54.19 68.4 8.2 79 5
2009-03-16 08:41:27 51°14.735 2°54.335 162.7 10.7 175 5.4
2009-03-16 08:42:27 51°14.553 2°54.219 215.5 12.7 217 6
2009-03-16 08:43:27 51°14.384 2°54.008 214.3 13 214 4.7
2009-03-16 08:44:27 51°14.219 2°53.782 224.7 12.9 224 4.4
2009-03-16 08:45:27 51°14.083 2°53.508 233.3 13.3 233 4.3
2009-03-16 08:46:27 51°13.954 2°53.225 234 13.3 233 4.6
2009-03-16 08:47:27 51°13.823 2°52.94 234.5 13.4 235 4.7
2009-03-16 08:48:27 51°13.696 2°52.652 234.1 13.3 235 4.9
2009-03-16 08:49:27 51°13.573 2°52.358 237 13.3 237 4.9
2009-03-16 08:50:27 51°13.453 2°52.062 239.5 13.2 241 4.8
2009-03-16 08:51:27 51°13.376 2°51.797 261.9 9 261 5.2
2009-03-16 08:52:27 51°13.362 2°51.576 268.9 8.2 264 5.6
2009-03-16 08:53:27 51°13.353 2°51.361 276.8 7.8 274 5.8
2009-03-16 08:54:27 51°13.395 2°51.218 317.2 4.7 300 6.3
2009-03-16 08:55:27 51°13.43 2°51.142 340.2 2.9 311 6.4
2009-03-16 08:56:26 51°13.456 2°51.097 355 1.9 315 6.4
2009-03-16 08:57:26 51°13.472 2°51.065 5.8 1.2 275 6.4
2009-03-16 08:58:27 51°13.474 2°51.034 8.8 1.2 276 6.4
2009-03-16 08:59:27 51°13.475 2°51.005 7.7 1.2 272 6.4
2009-03-16 09:00:26 51°13.476 2°50.977 4.5 1.2 270 6.3
2009-03-16 09:01:27 51°13.475 2°50.947 2.1 1.1 268 6.2
2009-03-16 09:02:27 51°13.475 2°50.918 359.8 1.1 266 6.1
2009-03-16 09:03:27 51°13.471 2°50.891 0.6 1.1 246 6.1
2009-03-16 09:04:27 51°13.456 2°50.864 1 1.6 223 6.2
2009-03-16 09:05:27 51°13.436 2°50.837 4.6 1.6 220 6.3
2009-03-16 09:06:27 51°13.417 2°50.809 11.7 1.5 224 6.3
2009-03-16 09:07:27 51°13.399 2°50.779 18.3 1.6 228 6.4
2009-03-16 09:08:27 51°13.383 2°50.748 24.4 1.5 232 6.4
2009-03-16 09:09:27 51°13.369 2°50.717 32.7 1.2 241 6.5
2009-03-16 09:10:27 51°13.364 2°50.695 41.3 0.6 261 6.4
2009-03-16 09:11:27 51°13.368 2°50.686 45.6 0.3 353 6.4
2009-03-16 09:12:27 51°13.378 2°50.688 43.8 0.7 14 6.3
2009-03-16 09:13:27 51°13.389 2°50.69 40.5 0.7 357 6.3
2009-03-16 09:14:27 51°13.4 2°50.687 34.2 0.7 347 6.1
2009-03-16 09:15:27 51°13.412 2°50.68 29 0.7 338 5.9
2009-03-16 09:16:27 51°13.422 2°50.672 34 0.6 340 5.7
2009-03-16 09:17:27 51°13.431 2°50.673 54.3 0.8 55 5.6
2009-03-16 09:18:26 51°13.427 2°50.713 95.2 2.4 110 5.9
2009-03-16 09:19:27 51°13.409 2°50.791 98.5 3.5 111 6.3
2009-03-16 09:20:26 51°13.394 2°50.862 91.8 1.9 106 6.4
2009-03-16 09:21:27 51°13.376 2°50.88 120.9 1.1 192 6.3
2009-03-16 09:22:27 51°13.357 2°50.869 144.5 1.3 206 6.3
2009-03-16 09:23:26 51°13.338 2°50.852 156.4 1.3 212 6.3
2009-03-16 09:24:27 51°13.319 2°50.831 165.4 1.4 217 6.3
2009-03-16 09:25:27 51°13.302 2°50.806 172.9 1.5 222 6.3
2009-03-16 09:26:27 51°13.283 2°50.778 179.8 1.5 224 6.3
2009-03-16 09:27:27 51°13.266 2°50.751 184.7 1.5 226 6.3
2009-03-16 09:28:27 51°13.248 2°50.721 188.1 1.6 229 6.3
2009-03-16 09:29:27 51°13.231 2°50.691 189.9 1.5 228 6.3
2009-03-16 09:30:27 51°13.214 2°50.66 190.2 1.6 233 6.4
2009-03-16 09:31:26 51°13.197 2°50.631 190.2 1.5 229 6.3
2009-03-16 09:32:27 51°13.181 2°50.6 190.5 1.5 229 6.4
2009-03-16 09:33:27 51°13.164 2°50.568 190.7 1.6 230 6.3
2009-03-16 09:34:27 51°13.148 2°50.538 190.8 1.5 228 6.3
2009-03-16 09:35:27 51°13.132 2°50.508 191.2 1.5 230 6.3
2009-03-16 09:36:26 51°13.104 2°50.472 198.9 3.1 214 6.3
2009-03-16 09:37:27 51°13.052 2°50.402 221 4.5 223 6.2
2009-03-16 09:38:26 51°13.005 2°50.302 230.9 4.9 232 6.2
2009-03-16 09:39:27 51°12.955 2°50.208 224.8 4.3 232 6.2
2009-03-16 09:40:27 51°12.914 2°50.127 229.4 3.6 234 6.2
2009-03-16 09:41:27 51°12.881 2°50.054 234.2 3.2 238 6.3
2009-03-16 09:42:27 51°12.852 2°49.987 228.1 2.9 234 6.2
2009-03-16 09:43:27 51°12.823 2°49.929 219.9 2.8 231 6.2
2009-03-16 09:44:27 51°12.794 2°49.874 218 2.7 230 6.2
2009-03-16 09:45:27 51°12.764 2°49.819 219 2.8 229 6
2009-03-16 09:46:27 51°12.732 2°49.763 218.3 2.9 228 6
2009-03-16 09:47:27 51°12.7 2°49.706 219.5 2.9 227 5.9
2009-03-16 09:48:27 51°12.668 2°49.646 220.9 3 232 5.9
2009-03-16 09:49:27 51°12.636 2°49.586 222.1 3 230 5.7
2009-03-16 09:50:27 51°12.604 2°49.526 221.5 2.9 230 5.7
2009-03-16 09:51:27 51°12.573 2°49.466 221.5 3 230 5.7
2009-03-16 09:52:27 51°12.541 2°49.406 222.3 3 232 5.6
2009-03-16 09:53:27 51°12.51 2°49.346 224.2 2.9 230 5.6
2009-03-16 09:54:27 51°12.481 2°49.286 228.9 2.9 236 5.5
2009-03-16 09:55:27 51°12.453 2°49.224 228.5 2.7 234 5.4
2009-03-16 09:56:26 51°12.428 2°49.172 227.4 2.3 235 5.4
2009-03-16 09:57:26 51°12.407 2°49.125 229.9 2.1 234 5.3
2009-03-16 09:58:26 51°12.388 2°49.082 233.6 1.9 237 5.4
2009-03-16 09:59:27 51°12.362 2°49.016 236.1 5.3 236 5.3
2009-03-16 10:00:27 51°12.282 2°48.831 234.8 10.4 235 5.1
2009-03-16 10:01:27 51°12.177 2°48.564 242.2 12.6 246 5
2009-03-16 10:02:27 51°12.097 2°48.251 249.8 12.9 249 5.1
2009-03-16 10:03:27 51°12.021 2°47.93 251.8 13 251 5.3
2009-03-16 10:04:27 51°11.948 2°47.603 251.2 13.2 248 5.6
2009-03-16 10:05:26 51°11.871 2°47.283 250.1 13.2 249 5.9
2009-03-16 10:06:26 51°11.793 2°46.957 250.2 13.2 248 6
2009-03-16 10:07:26 51°11.715 2°46.632 250.5 13.1 249 6.3
2009-03-16 10:08:27 51°11.633 2°46.301 249.4 13.2 248 6.5
2009-03-16 10:09:27 51°11.552 2°45.977 249 13.2 249 6.5
2009-03-16 10:10:27 51°11.471 2°45.651 248.6 13.3 249 6.5
2009-03-16 10:11:27 51°11.389 2°45.328 248.1 13.1 246 6.5
2009-03-16 10:12:27 51°11.309 2°45.006 249.4 13.1 248 6.5
2009-03-16 10:13:27 51°11.229 2°44.684 249.3 13.1 247 6.5
2009-03-16 10:14:27 51°11.147 2°44.362 249.8 13.1 248 6.2
2009-03-16 10:15:27 51°11.068 2°44.038 249.7 13.1 249 6.3
2009-03-16 10:16:26 51°10.989 2°43.72 249.3 13.1 249 6.2
2009-03-16 10:17:26 51°10.908 2°43.397 249.2 13.1 247 6.1
2009-03-16 10:18:26 51°10.827 2°43.074 249.2 13.1 249 6
2009-03-16 10:19:27 51°10.744 2°42.75 250.7 13 250 6
2009-03-16 10:20:27 51°10.673 2°42.422 252.7 13.1 252 6.1
2009-03-16 10:21:27 51°10.605 2°42.094 254.4 13.1 254 6.2
2009-03-16 10:22:27 51°10.544 2°41.76 255.2 13.1 252 6.3
2009-03-16 10:23:27 51°10.479 2°41.428 254 13.1 253 6.4
2009-03-16 10:24:26 51°10.414 2°41.102 253.4 13.1 251 6.5
2009-03-16 10:25:26 51°10.349 2°40.77 254.1 13.1 252 6.6
2009-03-16 10:26:26 51°10.282 2°40.438 253.4 13.1 252 6.8
2009-03-16 10:27:27 51°10.215 2°40.101 253.7 13.1 252 7
2009-03-16 10:28:27 51°10.145 2°39.771 251.8 13.1 251 7.3
2009-03-16 10:29:27 51°10.074 2°39.442 253.7 13.2 253 7.6
2009-03-16 10:30:27 51°10.009 2°39.109 254.2 13.2 253 8.1
2009-03-16 10:31:27 51°9.942 2°38.774 253.6 13.3 252 8.6
2009-03-16 10:32:27 51°9.875 2°38.437 253.7 13.3 253 9.1
2009-03-16 10:33:26 51°9.808 2°38.106 253 13.4 251 9.6
2009-03-16 10:34:26 51°9.738 2°37.769 253 13.4 252 10.1
2009-03-16 10:35:26 51°9.668 2°37.432 253.7 13.4 252 10.9
2009-03-16 10:36:28 51°9.596 2°37.083 253.4 13.4 252 10.9
2009-03-16 10:37:27 51°9.526 2°36.752 251.8 13.4 250 10.7
2009-03-16 10:38:27 51°9.452 2°36.417 253.2 13.4 252 10.9
2009-03-16 10:39:27 51°9.385 2°36.078 253.8 13.4 251 11.1
2009-03-16 10:40:27 51°9.315 2°35.739 252.6 13.5 251 11.1
2009-03-16 10:41:27 51°9.241 2°35.402 253.4 13.5 252 11.4
2009-03-16 10:42:26 51°9.173 2°35.068 251.7 13.5 251 11.4
2009-03-16 10:43:26 51°9.104 2°34.728 254.1 13.5 252 11.5
2009-03-16 10:44:26 51°9.032 2°34.39 251.9 13.4 251 10.9
2009-03-16 10:45:28 51°8.959 2°34.043 254.1 13.4 252 10.1
2009-03-16 10:46:27 51°8.901 2°33.715 258.8 12.2 257 13.6
2009-03-16 10:47:27 51°8.875 2°33.443 280.5 7.5 274 15.1
2009-03-16 10:48:27 51°8.897 2°33.294 306.6 5.1 290 15.2
2009-03-16 10:49:27 51°8.918 2°33.201 323.6 2.3 282 15.4
2009-03-16 10:50:27 51°8.913 2°33.159 342.3 1.5 254 13.4
2009-03-16 10:51:27 51°8.905 2°33.123 353 1.4 249 13.4
2009-03-16 10:52:28 51°8.896 2°33.087 358.6 1.4 248 13.5
2009-03-16 10:53:27 51°8.887 2°33.054 2.9 1.3 249 13.5
2009-03-16 10:54:27 51°8.878 2°33.021 7.3 1.3 244 13.5
2009-03-16 10:55:27 51°8.87 2°32.99 12 1.3 245 13.6
2009-03-16 10:56:27 51°8.861 2°32.959 16 1.3 245 13.6
2009-03-16 10:57:27 51°8.852 2°32.928 20.3 1.2 244 13.6
2009-03-16 10:58:27 51°8.842 2°32.899 25 1.2 241 13.6
2009-03-16 10:59:27 51°8.833 2°32.87 29.5 1.2 241 13.7
2009-03-16 11:00:27 51°8.824 2°32.842 30.3 1.1 249 13.8
2009-03-16 11:01:27 51°8.817 2°32.815 21.3 1 251 13.8
2009-03-16 11:02:27 51°8.826 2°32.802 31.5 1.6 7 13.8
2009-03-16 11:03:27 51°8.868 2°32.826 33.5 3.3 23 13.9
2009-03-16 11:04:27 51°8.921 2°32.867 36.9 3.3 29 13.8
2009-03-16 11:05:27 51°8.962 2°32.905 40.6 2.7 32 13.5
2009-03-16 11:06:27 51°8.999 2°32.946 41.9 2.8 36 13.4
2009-03-16 11:07:27 51°9.037 2°32.989 40.7 2.9 35 13.1
2009-03-16 11:08:27 51°9.076 2°33.035 41.9 3 37 12.6
2009-03-16 11:09:27 51°9.116 2°33.084 41.5 3.1 38 12.1
2009-03-16 11:10:27 51°9.158 2°33.134 41.5 3.3 38 11.7
2009-03-16 11:11:27 51°9.202 2°33.188 41.5 3.3 38 11.4
2009-03-16 11:12:27 51°9.247 2°33.24 41 3.2 35 10.8
2009-03-16 11:13:27 51°9.29 2°33.287 41.9 3.1 35 9.9
2009-03-16 11:14:27 51°9.33 2°33.334 43.5 3 37 9.1
2009-03-16 11:15:27 51°9.37 2°33.381 45.1 3 38 8.5
2009-03-16 11:16:27 51°9.406 2°33.434 52.3 2.9 50 8
2009-03-16 11:17:27 51°9.429 2°33.499 62.2 2.9 64 8
2009-03-16 11:18:27 51°9.451 2°33.566 60.9 2.9 63 8.2
2009-03-16 11:19:27 51°9.475 2°33.632 60 2.9 60 8.2
2009-03-16 11:20:27 51°9.5 2°33.697 59.6 2.9 59 8.1
2009-03-16 11:21:27 51°9.52 2°33.764 66.8 2.7 70 8.1
2009-03-16 11:22:27 51°9.532 2°33.834 75 2.8 82 8.7
2009-03-16 11:23:27 51°9.535 2°33.894 80.6 1.7 95 9
2009-03-16 11:24:27 51°9.533 2°33.927 79.6 1 100 9.4
2009-03-16 11:25:27 51°9.532 2°33.944 72 0.4 89 9.8
2009-03-16 11:26:27 51°9.532 2°33.948 62.7 0.1 199 9.7
2009-03-16 11:27:27 51°9.535 2°33.95 54.5 1.2 47 9.6
2009-03-16 11:28:27 51°9.581 2°34.045 55.7 6.5 53 9.4
2009-03-16 11:29:27 51°9.69 2°34.21 40.5 10.6 38 7.8
2009-03-16 11:30:27 51°9.836 2°34.383 38.8 11.1 37 6.4
2009-03-16 11:31:27 51°9.983 2°34.56 39.4 11.1 38 6.3
2009-03-16 11:32:27 51°10.131 2°34.734 39.2 11.1 37 6.5
2009-03-16 11:33:27 51°10.277 2°34.912 39.6 11 37 5.9
2009-03-16 11:34:27 51°10.423 2°35.085 37.1 10.9 34 5.1
2009-03-16 11:35:27 51°10.57 2°35.251 38.1 10.9 36 4.9
2009-03-16 11:36:27 51°10.717 2°35.42 37.8 10.9 36 5.2
2009-03-16 11:37:27 51°10.863 2°35.59 38.4 10.9 37 5.4
2009-03-16 11:38:27 51°11.007 2°35.766 38.4 10.9 36 5.5
2009-03-16 11:39:27 51°11.153 2°35.937 38.8 10.9 37 5.6
2009-03-16 11:40:27 51°11.298 2°36.11 38.8 10.8 37 5.6
2009-03-16 11:41:27 51°11.443 2°36.283 39 10.9 36 5.8
2009-03-16 11:42:27 51°11.586 2°36.46 41.3 11 39 5.9
2009-03-16 11:43:27 51°11.732 2°36.633 38 10.9 36 5.8
2009-03-16 11:44:27 51°11.881 2°36.799 37.3 10.9 34 5.6
2009-03-16 11:45:27 51°12.032 2°36.956 33.2 10.9 30 5.8
2009-03-16 11:46:28 51°12.204 2°37.059 20.1 11 16 6
2009-03-16 11:47:27 51°12.379 2°37.13 18.4 11 13 6
2009-03-16 11:48:27 51°12.56 2°37.175 11.7 11.1 7 6.3
2009-03-16 11:49:27 51°12.742 2°37.224 15.7 11 10 6.1
2009-03-16 11:50:28 51°12.929 2°37.255 10 11.1 5 5.6
2009-03-16 11:51:27 51°13.11 2°37.276 8.3 11.1 3 4.9
2009-03-16 11:52:27 51°13.295 2°37.294 6.1 11.2 -999 4.6
2009-03-16 11:53:27 51°13.482 2°37.279 358.4 11.3 352 4.3
2009-03-16 11:54:27 51°13.671 2°37.232 357.2 11.8 351 13.5
2009-03-16 11:55:27 51°13.863 2°37.178 356.6 11.7 349 15.4
2009-03-16 11:56:27 51°14.051 2°37.119 355 11.5 347 13.5
2009-03-16 11:57:27 51°14.238 2°37.081 2.3 11.2 355 8.7
2009-03-16 11:58:27 51°14.423 2°37.062 3 11.1 357 6.9
2009-03-16 11:59:27 51°14.609 2°37.044 2.8 11.2 356 6.7
2009-03-16 12:00:27 51°14.796 2°37.033 5.7 11.3 -999 5.8
2009-03-16 12:01:27 51°14.983 2°37.043 8.2 11.4 2 8.1
2009-03-16 12:02:27 51°15.172 2°37.054 9.7 11.3 4 7.3
2009-03-16 12:03:27 51°15.361 2°37.07 8.3 11.4 3 13.7
2009-03-16 12:04:27 51°15.549 2°37.095 13.7 11.3 11 12.7
2009-03-16 12:05:27 51°15.732 2°37.163 19.1 11.3 16 12
2009-03-16 12:06:27 51°15.912 2°37.25 21.1 11.3 17 11.4
2009-03-16 12:07:27 51°16.088 2°37.353 27.4 11.2 24 12.7
2009-03-16 12:08:27 51°16.236 2°37.529 43.9 11.2 43 13.8
2009-03-16 12:09:27 51°16.358 2°37.71 44.9 7.1 43 12.5
2009-03-16 12:10:27 51°16.402 2°37.808 65.5 2.7 65 13.4
2009-03-16 12:11:27 51°16.412 2°37.833 49.8 0.5 43 13.3
2009-03-16 12:12:28 51°16.418 2°37.839 46.8 0.3 25 13.2
2009-03-16 12:13:27 51°16.419 2°37.84 46.4 0.1 320 13.1
2009-03-16 12:14:27 51°16.419 2°37.839 47.2 0.2 276 13.2
2009-03-16 12:15:27 51°16.416 2°37.836 48.4 0.3 215 13.3
2009-03-16 12:16:27 51°16.413 2°37.83 49.4 0.2 219 13.6
2009-03-16 12:17:27 51°16.424 2°37.845 41.7 2.1 37 13.4
2009-03-16 12:18:27 51°16.467 2°37.906 48.9 3.6 48 12.5
2009-03-16 12:19:27 51°16.509 2°37.963 35.4 3.1 29 13
2009-03-16 12:20:27 51°16.558 2°37.994 30.3 3.1 24 14.3
2009-03-16 12:21:27 51°16.599 2°38.04 44.9 2.9 40 14.8
2009-03-16 12:22:27 51°16.637 2°38.089 41.1 2.9 37 15.7
2009-03-16 12:23:27 51°16.675 2°38.136 42 2.9 40 15.9
2009-03-16 12:24:27 51°16.713 2°38.185 41.8 2.9 38 15.6
2009-03-16 12:25:27 51°16.752 2°38.233 42.9 3 39 16.5
2009-03-16 12:26:27 51°16.792 2°38.281 42.5 3 39 15.8
2009-03-16 12:27:27 51°16.831 2°38.328 42.4 2.9 38 17.2
2009-03-16 12:28:28 51°16.87 2°38.377 42.3 3 37 17.4
2009-03-16 12:29:27 51°16.908 2°38.424 42.4 2.9 38 17.3
2009-03-16 12:30:28 51°16.947 2°38.473 42.7 2.9 38 18
2009-03-16 12:31:27 51°16.984 2°38.521 42.3 2.9 39 19
2009-03-16 12:32:27 51°17.022 2°38.568 41.7 2.9 40 19.2
2009-03-16 12:33:27 51°17.06 2°38.616 42.7 2.9 40 19.7
2009-03-16 12:34:27 51°17.095 2°38.667 47.1 2.8 45 19.6
2009-03-16 12:35:27 51°17.127 2°38.72 47.7 2.7 45 19.6
2009-03-16 12:36:27 51°17.157 2°38.772 47.6 2.8 45 19.2
2009-03-16 12:37:27 51°17.184 2°38.81 40.9 1.6 34 19.5
2009-03-16 12:38:27 51°17.202 2°38.823 30.7 1 18 20.7
2009-03-16 12:39:27 51°17.216 2°38.824 23.6 1.1 6 21
2009-03-16 12:40:27 51°17.231 2°38.878 95.4 3.6 111 19.5
2009-03-16 12:41:27 51°17.169 2°39.023 120.9 9.3 129 10.8
2009-03-16 12:42:27 51°17.033 2°39.224 138.7 11.9 146 10.9
2009-03-16 12:43:27 51°16.871 2°39.41 138 11.9 142 12.9
2009-03-16 12:44:27 51°16.72 2°39.62 130.2 12 135 17.6
2009-03-16 12:45:27 51°16.579 2°39.844 127.9 11.8 132 20.2
2009-03-16 12:46:28 51°16.438 2°40.072 128.9 11.9 136 21.6
2009-03-16 12:47:27 51°16.3 2°40.295 128.6 12 134 21.7
2009-03-16 12:48:27 51°16.159 2°40.521 129.6 12.1 134 20.4
2009-03-16 12:49:27 51°16.013 2°40.743 130.7 12.2 135 18.2
2009-03-16 12:50:27 51°15.87 2°40.97 130.7 12.1 133 14.6
2009-03-16 12:51:27 51°15.725 2°41.195 131.6 12.2 136 12.1
2009-03-16 12:52:27 51°15.582 2°41.424 131.9 12.2 136 11.1
2009-03-16 12:53:28 51°15.458 2°41.678 117 11.9 120 11.1
2009-03-16 12:54:28 51°15.412 2°41.979 96.2 11.7 97 10.8
2009-03-16 12:55:27 51°15.384 2°42.282 95.8 11.8 98 11.7
2009-03-16 12:56:27 51°15.352 2°42.592 97.2 11.8 101 11.7
2009-03-16 12:57:28 51°15.323 2°42.907 93.4 11.8 98 12.8
2009-03-16 12:58:27 51°15.301 2°43.213 93.5 11.8 96 13.8
2009-03-16 12:59:27 51°15.272 2°43.526 96.1 12 99 13.9
2009-03-16 13:00:28 51°15.24 2°43.844 96.7 12 100 14.5
2009-03-16 13:01:27 51°15.212 2°44.153 95.2 11.9 97 17.3
2009-03-16 13:02:28 51°15.189 2°44.472 95 11.9 97 18.8
2009-03-16 13:03:28 51°15.16 2°44.786 97.3 11.9 99 18.2
2009-03-16 13:04:28 51°15.132 2°45.094 95.8 11.7 96 17.1
2009-03-16 13:05:28 51°15.11 2°45.401 93.5 11.7 93 16.1
2009-03-16 13:06:28 51°15.089 2°45.708 95 11.6 96 14.8
2009-03-16 13:07:28 51°15.067 2°46.015 94.9 11.6 97 13.2
2009-03-16 13:08:28 51°15.042 2°46.32 95 11.6 98 11.7
2009-03-16 13:09:28 51°15.018 2°46.626 94.6 11.5 97 10.3
2009-03-16 13:10:28 51°14.991 2°46.93 95.5 11.6 98 9.9
2009-03-16 13:11:28 51°14.966 2°47.236 94.6 11.7 98 11.2
2009-03-16 13:12:28 51°14.943 2°47.544 93.6 11.7 94 13.3
2009-03-16 13:13:28 51°14.933 2°47.854 91.2 11.5 92 13.7
2009-03-16 13:14:28 51°14.925 2°48.161 91.5 11.5 91 13.6
2009-03-16 13:15:28 51°14.917 2°48.465 92.1 11.5 93 13.1
2009-03-16 13:16:28 51°14.908 2°48.77 92.9 11.6 93 13.2
2009-03-16 13:17:28 51°14.898 2°49.076 92.1 11.5 93 13.4
2009-03-16 13:18:28 51°14.892 2°49.38 91.8 11.5 93 13.3
2009-03-16 13:19:28 51°14.882 2°49.684 91.1 11.4 92 13.4
2009-03-16 13:20:28 51°14.87 2°49.989 94 11.6 98 13.2
2009-03-16 13:21:28 51°14.855 2°50.295 92.6 11.5 92 13
2009-03-16 13:22:28 51°14.84 2°50.602 94.2 11.7 94 12.8
2009-03-16 13:23:28 51°14.818 2°50.908 96.2 11.6 97 12.5
2009-03-16 13:24:28 51°14.791 2°51.214 95.9 11.7 99 11.9
2009-03-16 13:25:28 51°14.768 2°51.522 95.3 11.7 97 11.3
2009-03-16 13:26:28 51°14.74 2°51.829 97 11.7 99 10.9
2009-03-16 13:27:28 51°14.713 2°52.139 95.4 11.9 96 10.7
2009-03-16 13:28:28 51°14.692 2°52.451 93.2 11.9 96 10.6
2009-03-16 13:29:28 51°14.68 2°52.764 91.6 12 92 10.2
2009-03-16 13:30:28 51°14.667 2°53.081 99.3 12 99 10
2009-03-16 13:31:28 51°14.626 2°53.392 101.3 12 100 9.5
2009-03-16 13:32:28 51°14.59 2°53.706 100.2 12 99 10.7
2009-03-16 13:33:28 51°14.569 2°54.021 97.3 11.9 96 12.3
2009-03-16 13:34:28 51°14.534 2°54.333 103.2 11.9 103 11.8
2009-03-16 13:35:28 51°14.481 2°54.638 107.2 12 108 11.7
2009-03-16 13:36:28 51°14.402 2°54.934 116.9 12.2 117 11.4
2009-03-16 13:37:28 51°14.299 2°55.193 126.2 10.3 126 11.7
2009-03-16 13:38:28 51°14.192 2°55.352 143.2 7.9 145 11.8
2009-03-16 13:39:28 51°14.091 2°55.456 149.5 7.3 150 11.8
2009-03-16 13:40:28 51°13.979 2°55.538 157.3 7.5 157 11.9
2009-03-16 13:41:28 51°13.871 2°55.61 157.5 6.9 157 11.7
2009-03-16 13:42:28 51°13.771 2°55.688 147.6 6.6 147 11.3
2009-03-16 13:43:28 51°13.704 2°55.804 124.8 5.4 124 11.9
2009-03-16 13:44:27 51°13.676 2°55.908 108.4 3.6 108 8.5
2009-03-16 13:45:28 51°13.665 2°55.954 119.1 0.5 148 5.4